createdAt,value
2022-09-02T00:01:31.978Z,3.40
2022-09-02T00:04:00.658Z,2.90
2022-09-02T00:06:29.544Z,2.30
2022-09-02T00:08:57.526Z,3.77
2022-09-02T00:11:27.569Z,4.03
2022-09-02T00:13:57.727Z,3.27
2022-09-02T00:16:26.210Z,3.23
2022-09-02T00:18:56.592Z,2.30
2022-09-02T00:21:25.818Z,3.87
2022-09-02T00:23:54.244Z,2.53
2022-09-02T00:26:22.275Z,1.70
2022-09-02T00:28:55.711Z,2.17
2022-09-02T00:31:25.390Z,2.30
2022-09-02T00:33:53.718Z,2.60
2022-09-02T00:36:23.763Z,2.53
2022-09-02T00:38:51.752Z,3.13
2022-09-02T00:41:21.285Z,2.53
2022-09-02T00:43:50.778Z,2.07
2022-09-02T00:46:19.767Z,3.80
2022-09-02T00:48:49.522Z,2.10
2022-09-02T00:51:18.096Z,2.43
2022-09-02T00:53:48.230Z,1.90
2022-09-02T00:56:20.110Z,2.03
2022-09-02T00:58:48.564Z,4.67
2022-09-02T01:01:16.626Z,4.00
2022-09-02T01:03:44.609Z,2.87
2022-09-02T01:06:15.565Z,2.90
2022-09-02T01:08:51.505Z,3.97
2022-09-02T01:11:21.522Z,4.30
2022-09-02T01:13:49.472Z,2.50
2022-09-02T01:16:21.174Z,5.23
2022-09-02T01:18:51.530Z,2.80
2022-09-02T01:21:20.089Z,2.63
2022-09-02T01:23:49.704Z,3.90
2022-09-02T01:26:19.099Z,2.97
2022-09-02T01:28:47.420Z,2.77
2022-09-02T01:31:15.513Z,3.07
2022-09-02T01:33:43.516Z,3.50
2022-09-02T01:36:13.963Z,5.67
2022-09-02T01:38:42.168Z,2.93
2022-09-02T01:41:11.514Z,3.10
2022-09-02T01:43:39.480Z,3.17
2022-09-02T01:46:07.437Z,2.77
2022-09-02T01:48:35.472Z,3.20
2022-09-02T01:51:04.281Z,3.93
2022-09-02T01:53:32.370Z,4.17
2022-09-02T01:56:00.310Z,4.27
2022-09-02T01:58:29.697Z,3.73
2022-09-02T02:00:57.675Z,3.30
2022-09-02T02:03:26.162Z,3.77
2022-09-02T02:05:54.355Z,2.93
2022-09-02T02:08:22.284Z,2.70
2022-09-02T02:10:50.220Z,2.67
2022-09-02T02:13:18.171Z,2.77
2022-09-02T02:15:47.659Z,3.30
2022-09-02T02:18:15.609Z,4.83
2022-09-02T02:20:44.983Z,4.00
2022-09-02T02:23:13.527Z,2.97
2022-09-02T02:25:41.882Z,3.03
2022-09-02T02:28:09.847Z,4.40
2022-09-02T02:30:38.538Z,2.77
2022-09-02T02:33:07.904Z,3.23
2022-09-02T02:35:35.897Z,3.17
2022-09-02T02:38:04.058Z,3.43
2022-09-02T02:40:32.891Z,4.27
2022-09-02T02:43:00.971Z,3.23
2022-09-02T02:45:28.908Z,2.93
2022-09-02T02:47:56.884Z,2.77
2022-09-02T02:50:26.297Z,3.77
2022-09-02T02:52:55.163Z,2.90
2022-09-02T02:55:24.366Z,5.20
2022-09-02T02:57:52.721Z,6.20
2022-09-02T03:00:22.960Z,4.03
2022-09-02T03:02:50.973Z,3.93
2022-09-02T03:05:19.593Z,3.40
2022-09-02T03:07:48.928Z,4.17
2022-09-02T03:10:16.880Z,4.77
2022-09-02T03:12:47.718Z,3.47
2022-09-02T03:15:17.311Z,3.70
2022-09-02T03:17:45.296Z,4.67
2022-09-02T03:20:13.453Z,4.03
2022-09-02T03:22:41.795Z,3.73
2022-09-02T03:25:12.552Z,5.33
2022-09-02T03:27:41.755Z,9.53
2022-09-02T03:30:11.515Z,5.10
2022-09-02T03:32:39.460Z,4.37
2022-09-02T03:35:08.741Z,5.47
2022-09-02T03:37:37.400Z,4.63
2022-09-02T03:40:05.759Z,5.67
2022-09-02T03:42:35.244Z,10.90
2022-09-02T03:45:03.219Z,8.63
2022-09-02T03:47:31.336Z,14.13
2022-09-02T03:49:59.407Z,20.93
2022-09-02T03:52:27.762Z,23.53
2022-09-02T03:54:56.009Z,30.97
2022-09-02T03:57:26.062Z,20.17
2022-09-02T03:59:55.645Z,21.30
2022-09-02T04:02:24.786Z,14.47
2022-09-02T04:04:52.944Z,11.73
2022-09-02T04:07:21.364Z,14.53
2022-09-02T04:09:49.403Z,12.73
2022-09-02T04:12:17.458Z,13.93
2022-09-02T04:14:46.023Z,12.67
2022-09-02T04:17:15.804Z,12.13
2022-09-02T04:19:44.037Z,15.53
2022-09-02T04:22:12.078Z,15.77
2022-09-02T04:24:40.163Z,14.33
2022-09-02T04:27:08.373Z,18.53
2022-09-02T04:29:36.568Z,15.13
2022-09-02T04:32:05.064Z,19.77
2022-09-02T04:34:34.700Z,18.83
2022-09-02T04:37:02.927Z,12.90
2022-09-02T04:39:31.325Z,11.93
2022-09-02T04:41:59.479Z,13.23
2022-09-02T04:44:27.898Z,15.17
2022-09-02T04:46:56.240Z,12.17
2022-09-02T04:49:24.499Z,13.47
2022-09-02T04:51:54.618Z,12.07
2022-09-02T04:54:22.857Z,15.03
2022-09-02T04:56:51.129Z,15.67
2022-09-02T04:59:20.785Z,17.63
2022-09-02T05:01:50.486Z,14.80
2022-09-02T05:04:18.763Z,19.87
2022-09-02T05:06:47.266Z,22.40
2022-09-02T05:09:17.007Z,24.30
2022-09-02T05:11:48.278Z,28.60
2022-09-02T05:14:17.046Z,21.37
2022-09-02T05:16:46.067Z,22.13
2022-09-02T05:19:14.643Z,21.23
2022-09-02T05:21:42.985Z,23.70
2022-09-02T05:24:11.096Z,25.80
2022-09-02T05:26:40.655Z,23.00
2022-09-02T05:29:08.575Z,26.77
2022-09-02T05:31:36.699Z,21.27
2022-09-02T05:34:05.000Z,22.40
2022-09-02T05:36:33.106Z,22.10
2022-09-02T05:39:01.143Z,21.10
2022-09-02T05:41:29.280Z,17.00
2022-09-02T05:44:01.389Z,17.67
2022-09-02T05:46:31.512Z,15.23
2022-09-02T05:49:09.297Z,14.30
2022-09-02T05:51:42.517Z,15.43
2022-09-02T05:54:11.988Z,11.90
2022-09-02T05:56:40.469Z,14.17
2022-09-02T05:59:14.997Z,19.17
2022-09-02T06:01:43.297Z,14.90
2022-09-02T06:04:11.432Z,18.80
2022-09-02T06:06:52.712Z,16.97
2022-09-02T06:09:22.628Z,14.33
2022-09-02T06:11:50.902Z,17.20
2022-09-02T06:14:21.980Z,22.13
2022-09-02T06:16:50.625Z,18.13
2022-09-02T06:19:20.494Z,20.87
2022-09-02T06:21:49.089Z,22.23
2022-09-02T06:24:17.528Z,20.30
2022-09-02T06:26:45.869Z,19.57
2022-09-02T06:29:14.138Z,19.47
2022-09-02T06:31:44.204Z,17.50
2022-09-02T06:34:15.252Z,13.57
2022-09-02T06:36:44.334Z,11.07
2022-09-02T06:39:13.446Z,12.67
2022-09-02T06:41:43.048Z,11.77
2022-09-02T06:44:12.279Z,10.97
2022-09-02T06:46:45.543Z,9.40
2022-09-02T06:49:13.821Z,8.03
2022-09-02T06:51:42.515Z,9.30
2022-09-02T06:54:14.174Z,7.37
2022-09-02T06:56:47.179Z,9.53
2022-09-02T06:59:17.332Z,10.60
2022-09-02T07:01:47.258Z,6.73
2022-09-02T07:04:33.661Z,6.53
2022-09-02T07:07:01.627Z,8.83
2022-09-02T07:09:31.557Z,8.63
2022-09-02T07:12:04.183Z,7.30
2022-09-02T07:14:32.957Z,6.10
2022-09-02T07:17:02.649Z,6.53
2022-09-02T07:19:30.845Z,9.00
2022-09-02T07:21:58.945Z,6.57
2022-09-02T07:24:26.955Z,4.90
2022-09-02T07:26:55.789Z,6.40
2022-09-02T07:29:24.495Z,6.17
2022-09-02T07:31:52.544Z,4.40
2022-09-02T07:34:22.150Z,4.17
2022-09-02T07:36:50.155Z,11.87
2022-09-02T07:39:19.069Z,5.17
2022-09-02T07:41:48.526Z,4.20
2022-09-02T07:44:17.889Z,3.47
2022-09-02T07:46:46.500Z,5.17
2022-09-02T07:49:16.435Z,4.70
2022-09-02T07:51:49.542Z,4.73
2022-09-02T07:54:19.168Z,5.10
2022-09-02T07:56:47.301Z,6.07
2022-09-02T07:59:15.389Z,5.33
2022-09-02T08:04:18.869Z,4.77
2022-09-02T08:06:48.437Z,4.47
2022-09-02T08:09:19.818Z,6.10
2022-09-02T08:11:50.460Z,4.80
2022-09-02T08:14:25.186Z,9.73
2022-09-02T08:16:53.839Z,7.07
2022-09-02T08:19:22.853Z,6.33
2022-09-02T08:21:52.478Z,5.07
2022-09-02T08:24:20.656Z,6.03
2022-09-02T08:26:48.704Z,8.30
2022-09-02T08:29:16.928Z,6.67
2022-09-02T08:31:49.680Z,22.67
2022-09-02T08:34:21.629Z,3.10
2022-09-02T08:36:56.281Z,5.10
2022-09-02T08:39:27.067Z,6.57
2022-09-02T08:44:29.714Z,3.10
2022-09-02T08:46:59.927Z,3.27
2022-09-02T08:49:30.434Z,3.40
2022-09-02T08:52:01.276Z,5.10
2022-09-02T08:54:32.986Z,3.83
2022-09-02T08:57:01.335Z,5.60
2022-09-02T08:59:31.666Z,4.77
2022-09-02T09:02:02.553Z,2.83
2022-09-02T09:04:39.004Z,9.03
2022-09-02T09:07:17.661Z,4.53
2022-09-02T09:09:52.923Z,3.77
2022-09-02T09:12:26.032Z,4.77
2022-09-02T09:14:58.238Z,2.90
2022-09-02T09:17:28.760Z,6.27
2022-09-02T09:19:58.716Z,7.17
2022-09-02T09:22:30.047Z,3.37
2022-09-02T09:24:59.672Z,2.80
2022-09-02T09:27:28.471Z,5.07
2022-09-02T09:29:56.516Z,3.30
2022-09-02T09:32:26.995Z,2.77
2022-09-02T09:35:02.230Z,4.80
2022-09-02T09:37:36.328Z,3.90
2022-09-02T09:40:20.339Z,2.90
2022-09-02T09:42:51.537Z,3.03
2022-09-02T09:45:22.996Z,3.50
2022-09-02T09:48:08.024Z,3.50
2022-09-02T09:50:36.213Z,3.70
2022-09-02T09:53:15.349Z,3.63
2022-09-02T09:55:51.944Z,4.07
2022-09-02T09:58:22.094Z,8.47
2022-09-02T10:00:50.469Z,6.17
2022-09-02T10:03:23.764Z,6.20
2022-09-02T10:05:55.087Z,5.20
2022-09-02T10:08:24.505Z,3.60
2022-09-02T10:10:57.342Z,4.70
2022-09-02T10:13:28.384Z,3.03
2022-09-02T10:16:06.592Z,5.00
2022-09-02T10:18:36.997Z,4.33
2022-09-02T10:21:15.528Z,5.63
2022-09-02T10:23:48.759Z,2.77
2022-09-02T10:26:20.714Z,6.70
2022-09-02T10:29:09.677Z,3.30
2022-09-02T10:31:39.818Z,3.33
2022-09-02T10:34:12.898Z,3.73
2022-09-02T10:36:46.000Z,6.83
2022-09-02T10:39:18.514Z,3.17
2022-09-02T10:41:47.586Z,5.63
2022-09-02T10:44:31.550Z,3.80
2022-09-02T10:47:02.638Z,3.13
2022-09-02T10:49:36.832Z,13.83
2022-09-02T10:52:10.396Z,4.40
2022-09-02T10:54:44.797Z,5.10
2022-09-02T10:57:15.899Z,5.63
2022-09-02T10:59:45.540Z,4.50
2022-09-02T11:02:16.738Z,4.00
2022-09-02T11:04:47.894Z,3.70
2022-09-02T11:07:18.444Z,3.67
2022-09-02T11:09:48.163Z,3.23
2022-09-02T11:12:18.551Z,3.70
2022-09-02T11:14:54.799Z,5.50
2022-09-02T11:17:26.291Z,4.67
2022-09-02T11:19:56.934Z,6.10
2022-09-02T11:22:27.594Z,3.90
2022-09-02T11:25:00.837Z,5.05
2022-09-02T11:27:42.025Z,4.07
2022-09-02T11:30:14.059Z,3.30
2022-09-02T11:32:45.848Z,4.15
2022-09-02T11:35:16.061Z,4.60
2022-09-02T11:37:45.999Z,3.23
2022-09-02T11:40:33.896Z,4.43
2022-09-02T11:43:14.141Z,4.03
2022-09-02T11:45:57.100Z,2.93
2022-09-02T11:48:36.563Z,6.03
2022-09-02T11:51:25.401Z,4.83
2022-09-02T11:53:55.028Z,3.90
2022-09-02T11:56:26.643Z,3.73
2022-09-02T11:58:54.724Z,4.40
2022-09-02T12:01:29.979Z,8.03
2022-09-02T12:07:19.481Z,3.60
2022-09-02T12:09:48.597Z,8.00
2022-09-02T12:12:31.621Z,3.58
2022-09-02T12:15:06.541Z,2.90
2022-09-02T12:17:38.176Z,5.35
2022-09-02T12:20:09.266Z,3.13
2022-09-02T12:22:39.231Z,5.30
2022-09-02T12:25:29.429Z,6.13
2022-09-02T12:28:10.880Z,3.33
2022-09-02T12:31:08.895Z,14.18
2022-09-02T12:33:38.065Z,4.78
2022-09-02T12:36:07.887Z,5.22
2022-09-02T12:38:38.869Z,3.00
2022-09-02T12:41:13.557Z,3.58
2022-09-02T12:43:48.617Z,3.65
2022-09-02T12:46:20.597Z,3.38
2022-09-02T12:48:52.387Z,1.92
2022-09-02T12:51:35.127Z,1.90
2022-09-02T12:54:06.779Z,1.67
2022-09-02T12:56:34.786Z,1.80
2022-09-02T12:59:03.085Z,1.40
2022-09-02T13:01:38.854Z,1.63
2022-09-02T13:04:26.468Z,1.33
2022-09-02T13:07:05.464Z,1.20
2022-09-02T13:09:54.309Z,1.87
2022-09-02T13:12:37.061Z,1.25
2022-09-02T13:15:21.317Z,1.30
2022-09-02T13:18:07.806Z,1.45
2022-09-02T13:20:55.949Z,1.50
2022-09-02T13:23:45.256Z,0.90
2022-09-02T13:26:48.335Z,1.77
2022-09-02T13:29:30.361Z,1.42
2022-09-02T13:32:05.274Z,4.97
2022-09-02T13:34:33.275Z,3.80
2022-09-02T13:37:01.214Z,1.80
2022-09-02T13:39:29.836Z,1.55
2022-09-02T13:41:57.871Z,5.47
2022-09-02T13:44:26.948Z,2.30
2022-09-02T13:46:56.092Z,1.20
2022-09-02T13:49:27.348Z,1.85
2022-09-02T13:51:56.684Z,2.80
2022-09-02T13:54:42.646Z,2.60
2022-09-02T13:57:12.403Z,2.15
2022-09-02T13:59:41.400Z,1.73
2022-09-02T14:02:19.573Z,1.60
2022-09-02T14:04:50.689Z,2.15
2022-09-02T14:07:20.668Z,1.70
2022-09-02T14:09:48.744Z,1.85
2022-09-02T14:12:16.750Z,2.47
2022-09-02T14:14:44.816Z,4.28
2022-09-02T14:17:22.378Z,2.03
2022-09-02T14:19:52.256Z,2.30
2022-09-02T14:22:22.964Z,2.38
2022-09-02T14:24:50.930Z,1.70
2022-09-02T14:27:20.337Z,2.15
2022-09-02T14:29:49.072Z,3.78
2022-09-02T14:32:21.809Z,1.85
2022-09-02T14:34:50.451Z,1.98
2022-09-02T14:37:22.124Z,3.00
2022-09-02T14:40:06.524Z,1.83
2022-09-02T14:42:34.687Z,3.50
2022-09-02T14:45:05.660Z,1.80
2022-09-02T14:47:37.560Z,1.97
2022-09-02T14:50:05.812Z,2.55
2022-09-02T14:52:36.754Z,2.40
2022-09-02T14:55:06.590Z,3.30
2022-09-02T14:57:36.656Z,2.30
2022-09-02T15:00:07.252Z,2.85
2022-09-02T15:02:35.995Z,2.42
2022-09-02T15:05:06.374Z,2.13
2022-09-02T15:11:05.203Z,3.33
2022-09-02T15:13:34.066Z,2.95
2022-09-02T15:16:02.788Z,7.32
2022-09-02T15:18:31.009Z,2.37
2022-09-02T15:20:58.952Z,2.88
2022-09-02T15:23:27.373Z,4.50
2022-09-02T15:25:56.604Z,2.80
2022-09-02T15:28:26.011Z,2.85
2022-09-02T15:30:58.559Z,2.50
2022-09-02T15:33:27.560Z,4.63
2022-09-02T15:35:55.537Z,2.20
2022-09-02T15:38:23.480Z,2.45
2022-09-02T15:40:51.472Z,2.60
2022-09-02T15:43:21.465Z,3.35
2022-09-02T15:45:51.194Z,4.50
2022-09-02T15:48:20.180Z,4.07
2022-09-02T15:50:48.455Z,1.98
2022-09-02T15:53:22.657Z,3.85
2022-09-02T15:55:51.555Z,2.22
2022-09-02T15:58:19.681Z,4.13
2022-09-02T16:00:47.629Z,2.33
2022-09-02T16:03:17.316Z,2.20
2022-09-02T16:05:45.297Z,2.00
2022-09-02T16:08:13.262Z,2.13
2022-09-02T16:10:41.494Z,3.80
2022-09-02T16:13:09.513Z,2.17
2022-09-02T16:15:37.475Z,2.33
2022-09-02T16:18:05.547Z,1.95
2022-09-02T16:20:35.044Z,3.45
2022-09-02T16:23:02.991Z,2.75
2022-09-02T16:25:30.912Z,2.53
2022-09-02T16:27:59.279Z,2.50
2022-09-02T16:30:27.327Z,3.03
2022-09-02T16:32:55.374Z,4.07
2022-09-02T16:35:23.344Z,3.03
2022-09-02T16:37:53.969Z,5.05
2022-09-02T16:40:22.511Z,2.35
2022-09-02T16:42:50.785Z,2.63
2022-09-02T16:45:19.682Z,3.43
2022-09-02T16:47:47.624Z,2.47
2022-09-02T16:50:15.775Z,2.70
2022-09-02T16:52:43.813Z,3.65
2022-09-02T16:55:17.978Z,4.07
2022-09-02T16:57:45.922Z,3.17
2022-09-02T17:00:14.767Z,7.17
2022-09-02T17:02:42.836Z,2.90
2022-09-02T17:05:11.016Z,2.53
2022-09-02T17:07:39.033Z,4.50
2022-09-02T17:10:07.488Z,2.57
2022-09-02T17:12:40.916Z,4.63
2022-09-02T17:15:11.377Z,6.00
2022-09-02T17:17:40.189Z,4.87
2022-09-02T17:20:08.676Z,10.00
2022-09-02T17:22:36.615Z,7.67
2022-09-02T17:25:04.662Z,13.10
2022-09-02T17:27:33.421Z,12.33
2022-09-02T17:30:02.980Z,7.23
2022-09-02T17:32:30.932Z,7.80
2022-09-02T17:34:58.907Z,7.97
2022-09-02T17:37:27.784Z,4.33
2022-09-02T17:39:55.762Z,2.63
2022-09-02T17:42:22.750Z,1.80
2022-09-02T17:44:50.707Z,3.47
2022-09-02T17:47:22.082Z,3.10
2022-09-02T17:49:50.366Z,1.83
2022-09-02T17:52:18.814Z,2.03
2022-09-02T17:54:47.700Z,3.27
2022-09-02T17:57:31.388Z,4.33
2022-09-02T18:00:04.809Z,4.47
2022-09-02T18:02:39.407Z,5.43
2022-09-02T18:05:10.244Z,4.17
2022-09-02T18:07:43.455Z,4.83
2022-09-02T18:10:12.862Z,3.37
2022-09-02T18:12:42.180Z,4.27
2022-09-02T18:15:12.543Z,2.93
2022-09-02T18:17:44.467Z,5.03
2022-09-02T18:20:14.389Z,4.03
2022-09-02T18:22:51.339Z,6.50
2022-09-02T18:25:32.192Z,3.27
2022-09-02T18:28:04.468Z,5.43
2022-09-02T18:30:41.539Z,5.43
2022-09-02T18:33:42.645Z,4.00
2022-09-02T18:36:16.795Z,4.57
2022-09-02T18:38:50.588Z,8.20
2022-09-02T18:41:27.597Z,6.13
2022-09-02T18:44:01.222Z,5.80
2022-09-02T18:46:35.006Z,4.33
2022-09-02T18:49:08.128Z,5.20
2022-09-02T18:51:40.480Z,5.40
2022-09-02T18:54:16.391Z,7.07
2022-09-02T18:56:46.810Z,10.97
2022-09-02T18:59:18.015Z,5.23
2022-09-02T19:01:57.387Z,6.13
2022-09-02T19:04:29.418Z,6.83
2022-09-02T19:07:27.057Z,5.70
2022-09-02T19:10:01.749Z,7.73
2022-09-02T19:12:34.042Z,4.60
2022-09-02T19:15:03.342Z,8.97
2022-09-02T19:17:31.441Z,3.90
2022-09-02T19:19:59.720Z,8.07
2022-09-02T19:22:35.151Z,5.10
2022-09-02T19:25:07.475Z,4.67
2022-09-02T19:27:40.773Z,7.10
2022-09-02T19:30:22.347Z,4.90
2022-09-02T19:32:56.390Z,4.50
2022-09-02T19:35:27.314Z,4.10
2022-09-02T19:37:57.444Z,4.40
2022-09-02T19:40:29.432Z,4.50
2022-09-02T19:42:57.676Z,5.27
2022-09-02T19:45:29.945Z,5.93
2022-09-02T19:48:08.373Z,5.53
2022-09-02T19:50:37.516Z,7.03
2022-09-02T19:53:07.331Z,7.27
2022-09-02T19:55:36.062Z,4.23
2022-09-02T19:58:04.544Z,5.50
2022-09-02T20:00:33.429Z,4.23
2022-09-02T20:03:01.498Z,5.83
2022-09-02T20:05:30.050Z,4.07
2022-09-02T20:07:57.977Z,4.93
2022-09-02T20:10:27.831Z,5.37
2022-09-02T20:12:56.365Z,6.40
2022-09-02T20:15:24.307Z,5.07
2022-09-02T20:17:52.294Z,3.83
2022-09-02T20:20:22.647Z,4.57
2022-09-02T20:22:55.343Z,4.13
2022-09-02T20:25:28.272Z,4.43
2022-09-02T20:28:04.733Z,3.63
2022-09-02T20:30:35.561Z,6.03
2022-09-02T20:33:10.023Z,6.63
2022-09-02T20:35:46.281Z,3.17
2022-09-02T20:38:26.676Z,3.33
2022-09-02T20:41:01.258Z,2.87
2022-09-02T20:43:47.392Z,6.37
2022-09-02T20:46:23.133Z,3.00
2022-09-02T20:48:59.258Z,4.33
2022-09-02T20:51:31.867Z,5.60
2022-09-02T20:54:13.978Z,4.63
2022-09-02T20:56:45.972Z,6.47
2022-09-02T20:59:20.893Z,5.57
2022-09-02T21:01:51.119Z,6.30
2022-09-02T21:04:29.172Z,7.00
2022-09-02T21:07:01.388Z,6.60
2022-09-02T21:09:35.198Z,8.73
2022-09-02T21:12:05.142Z,6.80
2022-09-02T21:14:36.319Z,7.40
2022-09-02T21:17:07.763Z,4.63
2022-09-02T21:19:37.832Z,5.30
2022-09-02T21:22:09.417Z,5.60
2022-09-02T21:24:40.960Z,4.80
2022-09-02T21:27:12.751Z,6.30
2022-09-02T21:29:43.472Z,3.63
2022-09-02T21:32:17.428Z,7.13
2022-09-02T21:34:49.883Z,5.13
2022-09-02T21:37:20.205Z,7.07
2022-09-02T21:39:52.975Z,6.60
2022-09-02T21:42:27.586Z,8.53
2022-09-02T21:45:01.924Z,4.97
2022-09-02T21:47:34.784Z,5.80
2022-09-02T21:50:10.056Z,7.33
2022-09-02T21:52:57.068Z,4.80
2022-09-02T21:55:32.582Z,5.80
2022-09-02T21:58:06.929Z,5.80
2022-09-02T22:00:35.128Z,6.10
2022-09-02T22:03:12.195Z,6.37
2022-09-02T22:05:49.360Z,6.57
2022-09-02T22:08:22.621Z,5.97
2022-09-02T22:10:55.499Z,6.27
2022-09-02T22:13:24.958Z,6.60
2022-09-02T22:15:59.743Z,6.80
2022-09-02T22:18:39.597Z,6.37
2022-09-02T22:21:11.454Z,7.30
2022-09-02T22:23:40.045Z,5.50
2022-09-02T22:26:15.712Z,6.13
2022-09-02T22:28:45.660Z,5.53
2022-09-02T22:31:16.349Z,6.00
2022-09-02T22:33:49.182Z,7.13
2022-09-02T22:36:25.166Z,4.63
2022-09-02T22:38:53.521Z,4.97
2022-09-02T22:41:24.879Z,5.03
2022-09-02T22:43:55.413Z,6.47
2022-09-02T22:46:43.239Z,6.27
2022-09-02T22:49:32.519Z,5.20
2022-09-02T22:52:21.452Z,5.73
2022-09-02T22:54:52.437Z,6.90
2022-09-02T22:57:28.656Z,6.90
2022-09-02T23:00:01.962Z,6.60
2022-09-02T23:02:32.786Z,6.37
2022-09-02T23:05:33.545Z,5.17
2022-09-02T23:08:01.569Z,6.30
2022-09-02T23:10:29.505Z,5.33
2022-09-02T23:13:01.013Z,5.33
2022-09-02T23:15:33.214Z,5.77
2022-09-02T23:18:07.473Z,5.80
2022-09-02T23:20:40.421Z,7.67
2022-09-02T23:23:18.019Z,7.60
2022-09-02T23:25:59.936Z,5.67
2022-09-02T23:28:32.269Z,6.00
2022-09-02T23:31:03.712Z,8.90
2022-09-02T23:33:36.768Z,7.03
2022-09-02T23:36:11.940Z,6.93
2022-09-02T23:38:52.290Z,8.37
2022-09-02T23:41:20.273Z,7.60
2022-09-02T23:43:48.673Z,7.80
2022-09-02T23:46:23.262Z,6.13
2022-09-02T23:48:56.719Z,6.50
2022-09-02T23:51:32.364Z,7.57
2022-09-02T23:54:11.921Z,6.67
2022-09-02T23:56:50.057Z,9.23
2022-09-02T23:59:28.869Z,9.37
